createdAt,value
2023-01-30T00:01:18.148Z,12.32
2023-01-30T00:03:44.994Z,12.80
2023-01-30T00:06:12.053Z,12.73
2023-01-30T00:08:39.187Z,12.95
2023-01-30T00:11:07.547Z,11.60
2023-01-30T00:13:35.066Z,12.10
2023-01-30T00:16:02.071Z,12.43
2023-01-30T00:18:29.163Z,11.82
2023-01-30T00:20:57.103Z,11.32
2023-01-30T00:23:23.588Z,11.85
2023-01-30T00:25:50.704Z,10.98
2023-01-30T00:28:17.753Z,11.25
2023-01-30T00:30:44.764Z,11.10
2023-01-30T00:33:11.537Z,11.18
2023-01-30T00:35:38.069Z,10.85
2023-01-30T00:38:04.511Z,10.70
2023-01-30T00:40:31.184Z,9.90
2023-01-30T00:43:16.404Z,9.93
2023-01-30T00:46:03.883Z,10.32
2023-01-30T00:48:30.978Z,9.75
2023-01-30T00:50:57.603Z,9.55
2023-01-30T00:53:24.834Z,9.02
2023-01-30T00:55:52.076Z,8.88
2023-01-30T00:58:18.973Z,9.05
2023-01-30T01:00:46.578Z,8.38
2023-01-30T01:03:13.596Z,8.73
2023-01-30T01:05:40.223Z,8.50
2023-01-30T01:08:06.944Z,8.10
2023-01-30T01:10:33.505Z,8.15
2023-01-30T01:13:00.648Z,7.90
2023-01-30T01:15:27.390Z,7.93
2023-01-30T01:17:54.755Z,7.53
2023-01-30T01:20:22.372Z,7.53
2023-01-30T01:22:53.836Z,7.57
2023-01-30T01:25:21.279Z,7.82
2023-01-30T01:27:48.280Z,7.95
2023-01-30T01:30:15.064Z,7.82
2023-01-30T01:32:45.014Z,7.43
2023-01-30T01:35:11.886Z,7.85
2023-01-30T01:37:38.643Z,7.82
2023-01-30T01:40:24.983Z,7.75
2023-01-30T01:42:51.643Z,7.35
2023-01-30T01:45:24.573Z,7.60
2023-01-30T01:48:00.568Z,7.15
2023-01-30T01:50:42.701Z,6.90
2023-01-30T01:53:12.431Z,6.78
2023-01-30T01:55:42.114Z,6.75
2023-01-30T01:58:17.456Z,7.53
2023-01-30T02:00:44.191Z,7.10
2023-01-30T02:03:15.695Z,7.57
2023-01-30T02:05:47.969Z,6.47
2023-01-30T02:08:20.987Z,6.68
2023-01-30T02:11:03.553Z,5.97
2023-01-30T02:13:31.189Z,6.32
2023-01-30T02:16:01.852Z,6.13
2023-01-30T02:18:34.414Z,6.07
2023-01-30T02:21:38.725Z,5.15
2023-01-30T02:24:16.279Z,6.10
2023-01-30T02:27:02.174Z,5.07
2023-01-30T02:29:50.324Z,5.25
2023-01-30T02:32:24.708Z,5.25
2023-01-30T02:35:05.566Z,5.10
2023-01-30T02:38:14.630Z,5.53
2023-01-30T02:41:12.220Z,5.30
2023-01-30T02:43:46.741Z,4.57
2023-01-30T02:46:22.561Z,4.85
2023-01-30T02:49:07.620Z,4.72
2023-01-30T02:51:37.182Z,5.10
2023-01-30T02:54:07.136Z,4.75
2023-01-30T02:56:52.647Z,4.65
2023-01-30T02:59:26.814Z,4.72
2023-01-30T03:01:53.261Z,4.30
2023-01-30T03:04:37.485Z,3.90
2023-01-30T03:07:38.888Z,4.30
2023-01-30T03:10:11.354Z,3.75
2023-01-30T03:12:50.012Z,3.78
2023-01-30T03:15:28.719Z,4.20
2023-01-30T03:17:56.140Z,4.03
2023-01-30T03:20:22.792Z,4.22
2023-01-30T03:22:49.564Z,4.15
2023-01-30T03:25:23.488Z,4.03
2023-01-30T03:27:53.581Z,3.88
2023-01-30T03:30:20.718Z,3.70
2023-01-30T03:32:47.266Z,3.70
2023-01-30T03:35:15.458Z,3.47
2023-01-30T03:37:42.256Z,3.53
2023-01-30T03:40:09.865Z,3.50
2023-01-30T03:42:36.536Z,3.67
2023-01-30T03:45:03.461Z,3.95
2023-01-30T03:47:30.143Z,3.10
2023-01-30T03:49:56.639Z,3.53
2023-01-30T03:52:23.681Z,3.05
2023-01-30T03:54:50.343Z,3.20
2023-01-30T03:57:16.845Z,2.75
2023-01-30T03:59:43.485Z,2.58
2023-01-30T04:02:10.366Z,2.97
2023-01-30T04:04:37.499Z,2.80
2023-01-30T04:07:04.084Z,2.72
2023-01-30T04:09:30.519Z,3.00
2023-01-30T04:11:57.047Z,2.97
2023-01-30T04:14:23.614Z,2.42
2023-01-30T04:16:50.299Z,2.83
2023-01-30T04:19:16.952Z,2.42
2023-01-30T04:21:43.482Z,2.50
2023-01-30T04:24:10.101Z,2.88
2023-01-30T04:26:36.729Z,2.88
2023-01-30T04:29:03.625Z,2.55
2023-01-30T04:31:30.729Z,2.60
2023-01-30T04:33:57.773Z,2.42
2023-01-30T04:36:24.417Z,2.40
2023-01-30T04:38:51.020Z,2.95
2023-01-30T04:41:17.517Z,2.35
2023-01-30T04:43:44.116Z,2.28
2023-01-30T04:46:10.675Z,2.40
2023-01-30T04:48:37.291Z,2.53
2023-01-30T04:51:04.064Z,2.80
2023-01-30T04:53:30.573Z,2.17
2023-01-30T04:55:57.225Z,2.33
2023-01-30T04:58:23.817Z,2.00
2023-01-30T05:00:50.384Z,1.83
2023-01-30T05:03:17.321Z,2.03
2023-01-30T05:05:47.182Z,1.73
2023-01-30T05:08:14.214Z,2.10
2023-01-30T05:10:40.843Z,1.85
2023-01-30T05:13:07.559Z,1.98
2023-01-30T05:15:34.088Z,1.92
2023-01-30T05:18:01.163Z,2.10
2023-01-30T05:20:27.995Z,1.90
2023-01-30T05:22:54.584Z,1.90
2023-01-30T05:25:21.739Z,2.10
2023-01-30T05:27:48.342Z,2.25
2023-01-30T05:30:14.967Z,1.90
2023-01-30T05:32:41.553Z,1.90
2023-01-30T05:35:08.667Z,2.08
2023-01-30T05:37:36.241Z,1.85
2023-01-30T05:40:02.870Z,1.98
2023-01-30T05:42:30.433Z,2.38
2023-01-30T05:44:56.931Z,1.50
2023-01-30T05:47:23.387Z,1.73
2023-01-30T05:49:49.954Z,1.95
2023-01-30T05:52:16.532Z,1.85
2023-01-30T05:54:43.273Z,1.85
2023-01-30T05:57:09.822Z,2.08
2023-01-30T05:59:36.355Z,2.13
2023-01-30T06:02:02.825Z,1.50
2023-01-30T06:04:29.353Z,2.00
2023-01-30T06:06:55.916Z,1.65
2023-01-30T06:09:22.518Z,1.85
2023-01-30T06:11:49.049Z,2.17
2023-01-30T06:14:15.644Z,2.00
2023-01-30T06:16:42.369Z,1.80
2023-01-30T06:19:09.058Z,2.05
2023-01-30T06:21:35.568Z,1.90
2023-01-30T06:24:02.496Z,1.80
2023-01-30T06:26:29.036Z,1.70
2023-01-30T06:28:57.900Z,1.58
2023-01-30T06:31:24.689Z,1.50
2023-01-30T06:33:52.706Z,1.58
2023-01-30T06:36:19.303Z,1.80
2023-01-30T06:38:45.947Z,1.55
2023-01-30T06:41:12.913Z,1.60
2023-01-30T06:43:39.504Z,1.35
2023-01-30T06:46:06.128Z,1.50
2023-01-30T06:48:32.647Z,1.42
2023-01-30T06:50:59.282Z,2.03
2023-01-30T06:53:30.374Z,1.70
2023-01-30T06:55:58.688Z,1.55
2023-01-30T06:58:25.691Z,1.85
2023-01-30T07:00:52.250Z,1.67
2023-01-30T07:03:19.004Z,2.10
2023-01-30T07:05:47.672Z,1.35
2023-01-30T07:08:15.920Z,1.73
2023-01-30T07:10:43.264Z,1.60
2023-01-30T07:13:09.915Z,2.15
2023-01-30T07:15:36.740Z,1.50
2023-01-30T07:18:03.525Z,2.03
2023-01-30T07:20:33.725Z,1.33
2023-01-30T07:23:00.712Z,1.80
2023-01-30T07:25:28.545Z,1.80
2023-01-30T07:28:00.217Z,1.63
2023-01-30T07:30:28.369Z,1.98
2023-01-30T07:32:57.914Z,2.15
2023-01-30T07:35:26.373Z,1.98
2023-01-30T07:37:53.379Z,1.50
2023-01-30T07:40:21.027Z,1.73
2023-01-30T07:43:07.501Z,1.98
2023-01-30T07:45:42.408Z,1.65
2023-01-30T07:48:11.294Z,1.90
2023-01-30T07:50:38.445Z,2.25
2023-01-30T07:53:11.953Z,1.63
2023-01-30T07:55:38.689Z,1.52
2023-01-30T07:58:05.455Z,1.23
2023-01-30T08:00:32.537Z,1.80
2023-01-30T08:02:59.295Z,1.70
2023-01-30T08:05:26.452Z,2.15
2023-01-30T08:07:56.177Z,2.03
2023-01-30T08:10:22.784Z,1.80
2023-01-30T08:12:52.645Z,1.92
2023-01-30T08:15:21.205Z,1.50
2023-01-30T08:17:56.715Z,1.63
2023-01-30T08:20:23.780Z,1.70
2023-01-30T08:22:50.367Z,1.95
2023-01-30T08:25:17.089Z,1.70
2023-01-30T08:27:43.699Z,1.52
2023-01-30T08:30:11.487Z,1.70
2023-01-30T08:32:38.187Z,1.70
2023-01-30T08:35:05.696Z,1.48
2023-01-30T08:37:32.344Z,1.98
2023-01-30T08:39:58.790Z,1.90
2023-01-30T08:42:25.338Z,2.20
2023-01-30T08:44:51.865Z,1.92
2023-01-30T08:47:18.365Z,1.70
2023-01-30T08:49:44.883Z,1.90
2023-01-30T08:52:11.467Z,1.90
2023-01-30T08:54:38.060Z,1.75
2023-01-30T08:57:04.510Z,1.70
2023-01-30T08:59:31.016Z,1.85
2023-01-30T09:01:57.481Z,1.73
2023-01-30T09:04:26.551Z,1.73
2023-01-30T09:06:53.817Z,1.85
2023-01-30T09:09:20.471Z,1.70
2023-01-30T09:11:50.072Z,2.13
2023-01-30T09:14:19.691Z,1.80
2023-01-30T09:16:55.952Z,1.77
2023-01-30T09:19:26.535Z,2.20
2023-01-30T09:21:54.799Z,1.88
2023-01-30T09:24:26.987Z,2.22
2023-01-30T09:26:59.001Z,2.40
2023-01-30T09:29:26.590Z,2.20
2023-01-30T09:31:53.884Z,2.00
2023-01-30T09:34:20.528Z,2.08
2023-01-30T09:36:47.018Z,2.17
2023-01-30T09:39:13.482Z,1.98
2023-01-30T09:42:04.967Z,2.00
2023-01-30T09:45:02.502Z,1.70
2023-01-30T09:47:55.472Z,2.15
2023-01-30T09:53:10.113Z,1.75
2023-01-30T09:55:39.782Z,2.40
2023-01-30T09:58:06.419Z,1.70
2023-01-30T10:00:42.215Z,2.05
2023-01-30T10:03:08.855Z,1.77
2023-01-30T10:05:44.378Z,1.63
2023-01-30T10:08:32.136Z,2.60
2023-01-30T10:11:10.732Z,2.00
2023-01-30T10:14:07.293Z,1.52
2023-01-30T10:16:59.315Z,1.75
2023-01-30T10:19:44.173Z,1.75
2023-01-30T10:22:24.082Z,2.03
2023-01-30T10:24:59.679Z,2.28
2023-01-30T10:27:30.652Z,1.90
2023-01-30T10:30:02.468Z,1.83
2023-01-30T10:32:48.601Z,2.72
2023-01-30T10:35:39.311Z,3.00
2023-01-30T10:38:20.182Z,2.60
2023-01-30T10:40:57.084Z,2.85
2023-01-30T10:43:31.573Z,4.60
2023-01-30T10:46:10.268Z,2.83
2023-01-30T10:48:55.498Z,2.40
2023-01-30T10:51:43.286Z,2.25
2023-01-30T10:54:17.488Z,2.13
2023-01-30T10:57:18.250Z,1.70
2023-01-30T11:00:10.341Z,1.92
2023-01-30T11:03:01.221Z,2.00
2023-01-30T11:05:39.586Z,2.30
2023-01-30T11:08:18.699Z,2.15
2023-01-30T11:10:45.329Z,2.25
2023-01-30T11:13:22.581Z,2.42
2023-01-30T11:15:53.290Z,2.47
2023-01-30T11:21:14.697Z,1.67
2023-01-30T11:23:43.225Z,2.20
2023-01-30T11:26:46.774Z,1.90
2023-01-30T11:29:31.374Z,1.90
2023-01-30T11:32:08.492Z,1.80
2023-01-30T11:34:35.016Z,2.15
2023-01-30T11:37:27.326Z,1.70
2023-01-30T11:39:54.329Z,1.40
2023-01-30T11:42:29.606Z,1.90
2023-01-30T11:45:15.735Z,1.83
2023-01-30T11:47:57.654Z,1.60
2023-01-30T11:50:41.888Z,1.90
2023-01-30T11:53:27.631Z,1.88
2023-01-30T11:56:25.049Z,2.00
2023-01-30T11:59:21.027Z,2.45
2023-01-30T12:01:47.667Z,2.33
2023-01-30T12:04:14.774Z,2.35
2023-01-30T12:06:43.481Z,1.90
2023-01-30T12:09:33.716Z,2.42
2023-01-30T12:12:00.258Z,3.35
2023-01-30T12:14:36.477Z,3.95
2023-01-30T12:17:21.516Z,2.40
2023-01-30T12:19:51.107Z,4.78
2023-01-30T12:22:45.925Z,2.95
2023-01-30T12:25:37.099Z,3.55
2023-01-30T12:28:14.783Z,2.37
2023-01-30T12:30:57.424Z,2.55
2023-01-30T12:33:34.727Z,2.05
2023-01-30T12:36:17.082Z,1.98
2023-01-30T12:38:50.110Z,2.20
2023-01-30T12:41:33.378Z,2.20
2023-01-30T12:44:33.014Z,1.88
2023-01-30T12:47:08.691Z,2.05
2023-01-30T12:50:00.258Z,1.67
2023-01-30T12:52:42.151Z,1.63
2023-01-30T12:55:19.979Z,1.83
2023-01-30T12:58:05.193Z,1.75
2023-01-30T13:00:55.232Z,1.70
2023-01-30T13:03:36.047Z,2.00
2023-01-30T13:06:47.678Z,1.75
2023-01-30T13:09:45.487Z,1.40
2023-01-30T13:12:40.152Z,2.38
2023-01-30T13:15:27.946Z,2.28
2023-01-30T13:18:15.209Z,2.60
2023-01-30T13:20:53.964Z,2.40
2023-01-30T13:23:29.903Z,2.28
2023-01-30T13:26:03.976Z,1.92
2023-01-30T13:28:43.195Z,1.90
2023-01-30T13:31:14.993Z,2.22
2023-01-30T13:33:46.156Z,1.70
2023-01-30T13:36:21.128Z,1.60
2023-01-30T13:39:02.985Z,1.50
2023-01-30T13:41:35.700Z,1.98
2023-01-30T13:44:17.454Z,1.80
2023-01-30T13:46:46.983Z,2.67
2023-01-30T13:49:31.822Z,1.50
2023-01-30T13:52:15.649Z,1.95
2023-01-30T13:55:14.718Z,1.90
2023-01-30T13:58:02.644Z,1.63
2023-01-30T14:00:33.715Z,1.73
2023-01-30T14:03:03.476Z,1.55
2023-01-30T14:05:52.226Z,1.73
2023-01-30T14:08:50.279Z,1.98
2023-01-30T14:11:32.414Z,1.30
2023-01-30T14:14:22.983Z,1.77
2023-01-30T14:17:17.639Z,2.83
2023-01-30T14:20:20.380Z,1.90
2023-01-30T14:23:00.611Z,1.80
2023-01-30T14:25:42.963Z,1.95
2023-01-30T14:28:12.464Z,1.98
2023-01-30T14:30:45.245Z,2.03
2023-01-30T14:33:51.348Z,1.38
2023-01-30T14:36:33.221Z,1.60
2023-01-30T14:39:37.692Z,1.70
2023-01-30T14:42:28.501Z,1.90
2023-01-30T14:45:16.141Z,1.95
2023-01-30T14:47:47.123Z,1.50
2023-01-30T14:50:23.021Z,3.03
2023-01-30T14:52:56.100Z,2.25
2023-01-30T14:55:30.045Z,1.63
2023-01-30T14:58:00.400Z,2.20
2023-01-30T15:00:33.568Z,2.00
2023-01-30T15:03:10.092Z,2.10
2023-01-30T15:05:43.624Z,2.50
2023-01-30T15:08:22.781Z,2.13
2023-01-30T15:11:09.308Z,1.58
2023-01-30T15:14:03.410Z,2.13
2023-01-30T15:16:37.833Z,1.80
2023-01-30T15:19:19.705Z,2.22
2023-01-30T15:22:13.119Z,2.55
2023-01-30T15:25:01.455Z,1.45
2023-01-30T15:27:39.296Z,1.48
2023-01-30T15:30:25.247Z,2.30
2023-01-30T15:33:30.045Z,1.67
2023-01-30T15:35:57.897Z,2.70
2023-01-30T15:38:26.623Z,2.13
2023-01-30T15:41:13.540Z,2.25
2023-01-30T15:44:12.152Z,1.67
2023-01-30T15:47:05.018Z,2.47
2023-01-30T15:49:37.686Z,2.08
2023-01-30T15:52:07.206Z,2.05
2023-01-30T15:54:35.191Z,2.28
2023-01-30T15:57:02.001Z,2.45
2023-01-30T15:59:35.201Z,2.70
2023-01-30T16:02:13.781Z,2.50
2023-01-30T16:04:40.723Z,1.90
2023-01-30T16:07:26.500Z,2.30
2023-01-30T16:10:07.600Z,2.20
2023-01-30T16:12:36.638Z,1.50
2023-01-30T16:15:18.440Z,1.65
2023-01-30T16:17:48.961Z,1.63
2023-01-30T16:20:17.526Z,1.40
2023-01-30T16:22:49.161Z,2.58
2023-01-30T16:25:22.399Z,2.50
2023-01-30T16:27:53.535Z,2.38
2023-01-30T16:30:29.555Z,2.28
2023-01-30T16:32:57.504Z,2.10
2023-01-30T16:35:27.082Z,1.85
2023-01-30T16:37:57.021Z,2.22
2023-01-30T16:40:32.024Z,1.70
2023-01-30T16:43:04.377Z,1.80
2023-01-30T16:45:34.267Z,2.33
2023-01-30T16:48:33.073Z,2.78
2023-01-30T16:51:02.773Z,4.80
2023-01-30T16:53:32.680Z,2.15
2023-01-30T16:56:07.669Z,4.05
2023-01-30T16:58:42.704Z,1.65
2023-01-30T17:01:10.328Z,1.83
2023-01-30T17:03:41.333Z,2.10
2023-01-30T17:06:16.911Z,2.88
2023-01-30T17:08:59.454Z,2.45
2023-01-30T17:11:35.102Z,2.13
2023-01-30T17:14:25.892Z,2.28
2023-01-30T17:17:07.561Z,2.10
2023-01-30T17:19:37.925Z,2.10
2023-01-30T17:22:17.832Z,3.13
2023-01-30T17:24:45.364Z,6.28
2023-01-30T17:27:12.126Z,4.28
2023-01-30T17:29:42.757Z,3.35
2023-01-30T17:32:13.807Z,2.65
2023-01-30T17:34:43.015Z,2.78
2023-01-30T17:39:40.555Z,5.47
2023-01-30T17:42:11.273Z,3.17
2023-01-30T17:44:41.063Z,2.95
2023-01-30T17:47:11.423Z,2.83
2023-01-30T17:49:37.981Z,3.00
2023-01-30T17:52:04.732Z,3.60
2023-01-30T17:54:31.359Z,2.33
2023-01-30T17:57:06.775Z,2.20
2023-01-30T17:59:33.548Z,2.40
2023-01-30T18:02:00.307Z,3.88
2023-01-30T18:04:27.359Z,2.20
2023-01-30T18:06:59.017Z,2.00
2023-01-30T18:09:27.037Z,2.38
2023-01-30T18:11:53.751Z,1.80
2023-01-30T18:14:22.200Z,2.40
2023-01-30T18:16:50.064Z,2.75
2023-01-30T18:19:24.236Z,2.78
2023-01-30T18:21:51.065Z,2.85
2023-01-30T18:24:18.611Z,2.50
2023-01-30T18:26:45.728Z,2.40
2023-01-30T18:29:12.739Z,1.65
2023-01-30T18:31:40.845Z,1.85
2023-01-30T18:34:09.920Z,1.88
2023-01-30T18:36:37.066Z,1.98
2023-01-30T18:39:05.356Z,2.05
2023-01-30T18:41:32.291Z,4.65
2023-01-30T18:44:00.960Z,7.55
2023-01-30T18:46:28.682Z,4.20
2023-01-30T18:48:56.509Z,5.22
2023-01-30T18:51:29.056Z,8.95
2023-01-30T18:53:56.567Z,2.90
2023-01-30T18:56:25.759Z,5.95
2023-01-30T18:58:55.026Z,2.83
2023-01-30T19:01:24.260Z,2.78
2023-01-30T19:03:55.564Z,2.63
2023-01-30T19:06:22.919Z,2.10
2023-01-30T19:08:50.128Z,1.73
2023-01-30T19:11:38.367Z,1.75
2023-01-30T19:14:06.139Z,3.13
2023-01-30T19:16:35.896Z,6.70
2023-01-30T19:19:03.112Z,5.07
2023-01-30T19:21:29.912Z,3.80
2023-01-30T19:23:56.761Z,2.67
2023-01-30T19:26:24.881Z,3.85
2023-01-30T19:28:52.343Z,4.50
2023-01-30T19:31:21.828Z,5.70
2023-01-30T19:33:56.290Z,6.28
2023-01-30T19:36:26.763Z,8.70
2023-01-30T19:38:53.687Z,4.72
2023-01-30T19:41:24.441Z,3.75
2023-01-30T19:43:53.048Z,2.75
2023-01-30T19:48:47.419Z,2.78
2023-01-30T19:51:21.158Z,2.33
2023-01-30T19:53:53.734Z,2.60
2023-01-30T19:56:22.318Z,3.30
2023-01-30T20:01:19.494Z,2.25
2023-01-30T20:06:18.201Z,2.42
2023-01-30T20:08:46.737Z,2.67
2023-01-30T20:11:15.435Z,3.05
2023-01-30T20:16:12.281Z,2.53
2023-01-30T20:18:40.079Z,3.22
2023-01-30T20:21:19.016Z,2.53
2023-01-30T20:23:47.247Z,3.13
2023-01-30T20:26:16.693Z,2.70
2023-01-30T20:28:43.549Z,4.57
2023-01-30T20:31:12.873Z,4.07
2023-01-30T20:33:39.838Z,2.60
2023-01-30T20:36:09.410Z,2.40
2023-01-30T20:38:38.706Z,4.57
2023-01-30T20:41:26.304Z,2.70
2023-01-30T20:43:56.578Z,2.90
2023-01-30T20:46:27.359Z,2.35
2023-01-30T20:48:56.278Z,2.72
2023-01-30T20:51:25.367Z,2.28
2023-01-30T20:53:55.247Z,3.03
2023-01-30T20:56:23.317Z,2.90
2023-01-30T20:58:50.094Z,2.42
2023-01-30T21:01:20.038Z,2.78
2023-01-30T21:03:50.310Z,2.55
2023-01-30T21:06:37.258Z,2.33
2023-01-30T21:09:22.891Z,2.30
2023-01-30T21:11:52.525Z,2.50
2023-01-30T21:14:19.191Z,2.38
2023-01-30T21:16:46.489Z,2.25
2023-01-30T21:19:16.563Z,3.65
2023-01-30T21:21:53.456Z,8.40
2023-01-30T21:24:23.950Z,10.18
2023-01-30T21:26:51.313Z,8.10
2023-01-30T21:29:20.741Z,5.18
2023-01-30T21:31:50.715Z,5.38
2023-01-30T21:34:17.378Z,3.30
2023-01-30T21:36:43.951Z,2.35
2023-01-30T21:39:32.128Z,2.83
2023-01-30T21:42:17.214Z,2.67
2023-01-30T21:44:43.615Z,2.38
2023-01-30T21:47:10.304Z,2.17
2023-01-30T21:49:37.039Z,2.58
2023-01-30T21:52:03.990Z,2.90
2023-01-30T21:54:30.616Z,2.70
2023-01-30T21:56:57.152Z,2.40
2023-01-30T21:59:23.670Z,2.28
2023-01-30T22:01:50.989Z,2.65
2023-01-30T22:04:17.802Z,2.47
2023-01-30T22:06:44.586Z,2.20
2023-01-30T22:09:15.550Z,2.60
2023-01-30T22:11:43.036Z,2.05
2023-01-30T22:14:13.250Z,2.58
2023-01-30T22:16:39.808Z,2.42
2023-01-30T22:19:06.439Z,2.15
2023-01-30T22:21:36.346Z,2.30
2023-01-30T22:24:05.423Z,1.90
2023-01-30T22:26:32.375Z,2.10
2023-01-30T22:29:00.298Z,2.10
2023-01-30T22:31:31.276Z,2.03
2023-01-30T22:33:57.951Z,1.85
2023-01-30T22:36:27.139Z,1.80
2023-01-30T22:38:54.297Z,1.83
2023-01-30T22:41:25.377Z,1.80
2023-01-30T22:43:55.576Z,1.85
2023-01-30T22:46:31.498Z,2.05
2023-01-30T22:49:00.009Z,1.63
2023-01-30T22:51:32.306Z,2.03
2023-01-30T22:54:01.836Z,2.42
2023-01-30T22:56:37.092Z,1.80
2023-01-30T22:59:05.002Z,1.73
2023-01-30T23:01:34.782Z,1.80
2023-01-30T23:04:07.657Z,2.00
2023-01-30T23:06:34.715Z,1.88
2023-01-30T23:09:01.559Z,1.90
2023-01-30T23:11:42.286Z,1.83
2023-01-30T23:14:14.604Z,1.63
2023-01-30T23:16:43.397Z,1.75
2023-01-30T23:19:12.202Z,1.55
2023-01-30T23:21:45.394Z,1.58
2023-01-30T23:24:16.908Z,1.80
2023-01-30T23:26:46.267Z,1.58
2023-01-30T23:29:15.102Z,1.70
2023-01-30T23:31:42.969Z,1.45
2023-01-30T23:34:18.744Z,1.33
2023-01-30T23:36:46.145Z,1.23
2023-01-30T23:39:13.597Z,1.50
2023-01-30T23:41:40.850Z,1.52
2023-01-30T23:44:07.740Z,1.40
2023-01-30T23:46:40.059Z,1.30
2023-01-30T23:49:12.288Z,1.60
2023-01-30T23:51:41.973Z,1.65
2023-01-30T23:54:09.737Z,1.35
2023-01-30T23:56:39.069Z,1.88
2023-01-30T23:59:06.408Z,1.00
